sensor_id;sensor_type;location;lat;lon;timestamp;P1;durP1;ratioP1;P2;durP2;ratioP2
69953;SDS011;57276;51.364;12.376;2022-10-16T00:03:52;2.75;;;0.90;;
69953;SDS011;57276;51.364;12.376;2022-10-16T00:09:54;4.03;;;0.90;;
69953;SDS011;57276;51.364;12.376;2022-10-16T00:15:56;2.33;;;0.82;;
69953;SDS011;57276;51.364;12.376;2022-10-16T00:21:58;3.07;;;1.10;;
69953;SDS011;57276;51.364;12.376;2022-10-16T00:28:18;2.92;;;1.08;;
69953;SDS011;57276;51.364;12.376;2022-10-16T00:34:20;3.35;;;1.00;;
69953;SDS011;57276;51.364;12.376;2022-10-16T00:40:21;2.23;;;0.80;;
69953;SDS011;57276;51.364;12.376;2022-10-16T00:46:27;2.42;;;0.80;;
69953;SDS011;57276;51.364;12.376;2022-10-16T00:52:29;2.40;;;0.80;;
69953;SDS011;57276;51.364;12.376;2022-10-16T00:58:31;3.70;;;0.98;;
69953;SDS011;57276;51.364;12.376;2022-10-16T01:04:42;2.97;;;0.95;;
69953;SDS011;57276;51.364;12.376;2022-10-16T01:16:50;3.80;;;1.20;;
69953;SDS011;57276;51.364;12.376;2022-10-16T01:22:59;5.00;;;1.00;;
69953;SDS011;57276;51.364;12.376;2022-10-16T01:29:03;2.70;;;1.00;;
69953;SDS011;57276;51.364;12.376;2022-10-16T01:35:09;3.20;;;1.02;;
69953;SDS011;57276;51.364;12.376;2022-10-16T01:47:32;3.38;;;1.17;;
69953;SDS011;57276;51.364;12.376;2022-10-16T01:53:34;3.67;;;1.00;;
69953;SDS011;57276;51.364;12.376;2022-10-16T01:59:38;3.78;;;1.20;;
69953;SDS011;57276;51.364;12.376;2022-10-16T02:05:41;3.20;;;1.00;;
69953;SDS011;57276;51.364;12.376;2022-10-16T02:11:45;2.70;;;1.00;;
69953;SDS011;57276;51.364;12.376;2022-10-16T02:17:47;2.55;;;0.90;;
69953;SDS011;57276;51.364;12.376;2022-10-16T02:23:57;2.30;;;0.80;;
69953;SDS011;57276;51.364;12.376;2022-10-16T02:36:22;2.88;;;1.00;;
69953;SDS011;57276;51.364;12.376;2022-10-16T02:42:28;3.37;;;1.20;;
69953;SDS011;57276;51.364;12.376;2022-10-16T02:48:29;3.15;;;1.02;;
69953;SDS011;57276;51.364;12.376;2022-10-16T02:54:31;2.80;;;1.10;;
69953;SDS011;57276;51.364;12.376;2022-10-16T03:00:32;3.47;;;1.00;;
69953;SDS011;57276;51.364;12.376;2022-10-16T03:06:34;3.35;;;0.90;;
69953;SDS011;57276;51.364;12.376;2022-10-16T03:12:35;2.73;;;1.10;;
69953;SDS011;57276;51.364;12.376;2022-10-16T03:18:37;2.70;;;0.90;;
69953;SDS011;57276;51.364;12.376;2022-10-16T03:24:38;4.23;;;1.83;;
69953;SDS011;57276;51.364;12.376;2022-10-16T03:30:40;4.35;;;1.45;;
69953;SDS011;57276;51.364;12.376;2022-10-16T03:36:41;2.55;;;0.93;;
69953;SDS011;57276;51.364;12.376;2022-10-16T03:42:43;2.70;;;0.90;;
69953;SDS011;57276;51.364;12.376;2022-10-16T03:48:45;2.40;;;0.80;;
69953;SDS011;57276;51.364;12.376;2022-10-16T03:54:46;3.20;;;1.10;;
69953;SDS011;57276;51.364;12.376;2022-10-16T04:00:48;4.93;;;1.00;;
69953;SDS011;57276;51.364;12.376;2022-10-16T04:06:49;4.47;;;1.00;;
69953;SDS011;57276;51.364;12.376;2022-10-16T04:12:51;2.47;;;0.90;;
69953;SDS011;57276;51.364;12.376;2022-10-16T04:18:53;2.70;;;1.08;;
69953;SDS011;57276;51.364;12.376;2022-10-16T04:24:54;5.20;;;1.37;;
69953;SDS011;57276;51.364;12.376;2022-10-16T04:30:55;2.60;;;1.13;;
69953;SDS011;57276;51.364;12.376;2022-10-16T04:36:57;3.03;;;1.13;;
69953;SDS011;57276;51.364;12.376;2022-10-16T04:42:59;4.57;;;1.10;;
69953;SDS011;57276;51.364;12.376;2022-10-16T04:49:00;4.90;;;1.33;;
69953;SDS011;57276;51.364;12.376;2022-10-16T04:55:02;3.87;;;1.10;;
69953;SDS011;57276;51.364;12.376;2022-10-16T05:01:04;2.72;;;1.08;;
69953;SDS011;57276;51.364;12.376;2022-10-16T05:07:05;3.70;;;1.20;;
69953;SDS011;57276;51.364;12.376;2022-10-16T05:13:07;3.43;;;1.20;;
69953;SDS011;57276;51.364;12.376;2022-10-16T05:19:08;4.88;;;1.30;;
69953;SDS011;57276;51.364;12.376;2022-10-16T05:25:30;3.20;;;1.20;;
69953;SDS011;57276;51.364;12.376;2022-10-16T05:31:31;5.50;;;1.27;;
69953;SDS011;57276;51.364;12.376;2022-10-16T05:37:33;4.30;;;1.30;;
69953;SDS011;57276;51.364;12.376;2022-10-16T05:43:34;3.17;;;1.50;;
69953;SDS011;57276;51.364;12.376;2022-10-16T05:49:36;3.58;;;1.30;;
69953;SDS011;57276;51.364;12.376;2022-10-16T05:55:41;5.10;;;1.40;;
69953;SDS011;57276;51.364;12.376;2022-10-16T06:01:43;3.42;;;1.20;;
69953;SDS011;57276;51.364;12.376;2022-10-16T06:07:44;2.95;;;1.35;;
69953;SDS011;57276;51.364;12.376;2022-10-16T06:13:52;4.70;;;1.20;;
69953;SDS011;57276;51.364;12.376;2022-10-16T06:19:54;3.78;;;1.35;;
69953;SDS011;57276;51.364;12.376;2022-10-16T06:26:03;4.50;;;1.37;;
69953;SDS011;57276;51.364;12.376;2022-10-16T06:32:05;3.53;;;1.08;;
69953;SDS011;57276;51.364;12.376;2022-10-16T06:38:06;2.95;;;1.20;;
69953;SDS011;57276;51.364;12.376;2022-10-16T06:44:08;5.47;;;1.40;;
69953;SDS011;57276;51.364;12.376;2022-10-16T06:50:09;2.80;;;1.13;;
69953;SDS011;57276;51.364;12.376;2022-10-16T06:56:17;4.30;;;1.17;;
69953;SDS011;57276;51.364;12.376;2022-10-16T07:02:19;4.15;;;1.25;;
69953;SDS011;57276;51.364;12.376;2022-10-16T07:08:21;3.00;;;1.20;;
69953;SDS011;57276;51.364;12.376;2022-10-16T07:14:22;3.00;;;1.17;;
69953;SDS011;57276;51.364;12.376;2022-10-16T07:20:24;7.55;;;2.25;;
69953;SDS011;57276;51.364;12.376;2022-10-16T07:26:27;3.53;;;1.30;;
69953;SDS011;57276;51.364;12.376;2022-10-16T07:32:28;3.60;;;1.40;;
69953;SDS011;57276;51.364;12.376;2022-10-16T07:38:30;3.80;;;1.40;;
69953;SDS011;57276;51.364;12.376;2022-10-16T07:44:31;3.43;;;1.20;;
69953;SDS011;57276;51.364;12.376;2022-10-16T07:50:33;2.90;;;1.20;;
69953;SDS011;57276;51.364;12.376;2022-10-16T07:56:34;2.80;;;0.90;;
69953;SDS011;57276;51.364;12.376;2022-10-16T08:02:40;3.30;;;1.00;;
69953;SDS011;57276;51.364;12.376;2022-10-16T08:08:42;3.25;;;1.00;;
69953;SDS011;57276;51.364;12.376;2022-10-16T08:14:43;3.33;;;1.10;;
69953;SDS011;57276;51.364;12.376;2022-10-16T08:20:54;4.60;;;1.00;;
69953;SDS011;57276;51.364;12.376;2022-10-16T08:26:56;4.13;;;0.90;;
69953;SDS011;57276;51.364;12.376;2022-10-16T08:32:58;2.30;;;0.80;;
69953;SDS011;57276;51.364;12.376;2022-10-16T08:38:59;2.35;;;0.70;;
69953;SDS011;57276;51.364;12.376;2022-10-16T08:51:24;2.60;;;0.70;;
69953;SDS011;57276;51.364;12.376;2022-10-16T08:57:26;3.50;;;0.73;;
69953;SDS011;57276;51.364;12.376;2022-10-16T09:10:11;2.47;;;0.80;;
69953;SDS011;57276;51.364;12.376;2022-10-16T09:22:18;2.83;;;0.63;;
69953;SDS011;57276;51.364;12.376;2022-10-16T09:28:23;2.33;;;0.60;;
69953;SDS011;57276;51.364;12.376;2022-10-16T09:34:30;2.75;;;0.70;;
69953;SDS011;57276;51.364;12.376;2022-10-16T09:40:33;3.40;;;0.80;;
69953;SDS011;57276;51.364;12.376;2022-10-16T09:46:36;2.23;;;0.70;;
69953;SDS011;57276;51.364;12.376;2022-10-16T09:52:38;2.90;;;1.00;;
69953;SDS011;57276;51.364;12.376;2022-10-16T09:58:43;2.40;;;0.90;;
69953;SDS011;57276;51.364;12.376;2022-10-16T10:04:51;2.78;;;0.80;;
69953;SDS011;57276;51.364;12.376;2022-10-16T10:10:55;2.50;;;0.85;;
69953;SDS011;57276;51.364;12.376;2022-10-16T10:23:23;3.17;;;1.02;;
69953;SDS011;57276;51.364;12.376;2022-10-16T10:36:12;3.28;;;1.00;;
69953;SDS011;57276;51.364;12.376;2022-10-16T10:42:21;2.50;;;1.02;;
69953;SDS011;57276;51.364;12.376;2022-10-16T11:00:42;5.70;;;1.27;;
69953;SDS011;57276;51.364;12.376;2022-10-16T11:06:48;2.95;;;1.00;;
69953;SDS011;57276;51.364;12.376;2022-10-16T11:12:57;4.68;;;1.00;;
69953;SDS011;57276;51.364;12.376;2022-10-16T11:19:04;3.10;;;1.13;;
69953;SDS011;57276;51.364;12.376;2022-10-16T11:25:32;2.65;;;1.10;;
69953;SDS011;57276;51.364;12.376;2022-10-16T11:31:37;3.23;;;1.40;;
69953;SDS011;57276;51.364;12.376;2022-10-16T11:37:41;3.15;;;1.27;;
69953;SDS011;57276;51.364;12.376;2022-10-16T11:43:45;3.30;;;1.20;;
69953;SDS011;57276;51.364;12.376;2022-10-16T11:49:50;4.20;;;1.20;;
69953;SDS011;57276;51.364;12.376;2022-10-16T11:55:54;3.60;;;1.38;;
69953;SDS011;57276;51.364;12.376;2022-10-16T12:08:15;3.55;;;1.30;;
69953;SDS011;57276;51.364;12.376;2022-10-16T12:20:20;3.10;;;1.50;;
69953;SDS011;57276;51.364;12.376;2022-10-16T12:26:29;4.05;;;1.40;;
69953;SDS011;57276;51.364;12.376;2022-10-16T12:32:33;2.93;;;1.10;;
69953;SDS011;57276;51.364;12.376;2022-10-16T12:38:48;2.53;;;1.13;;
69953;SDS011;57276;51.364;12.376;2022-10-16T12:44:50;3.13;;;1.10;;
69953;SDS011;57276;51.364;12.376;2022-10-16T12:50:52;2.73;;;1.03;;
69953;SDS011;57276;51.364;12.376;2022-10-16T13:09:19;3.30;;;1.00;;
69953;SDS011;57276;51.364;12.376;2022-10-16T13:15:35;2.30;;;1.00;;
69953;SDS011;57276;51.364;12.376;2022-10-16T13:28:01;3.30;;;1.20;;
69953;SDS011;57276;51.364;12.376;2022-10-16T13:34:03;2.70;;;1.40;;
69953;SDS011;57276;51.364;12.376;2022-10-16T13:40:09;3.88;;;1.30;;
69953;SDS011;57276;51.364;12.376;2022-10-16T13:46:19;2.25;;;0.85;;
69953;SDS011;57276;51.364;12.376;2022-10-16T13:52:21;2.60;;;1.13;;
69953;SDS011;57276;51.364;12.376;2022-10-16T13:58:23;3.53;;;1.20;;
69953;SDS011;57276;51.364;12.376;2022-10-16T14:04:25;2.50;;;1.10;;
69953;SDS011;57276;51.364;12.376;2022-10-16T14:10:30;3.00;;;1.30;;
69953;SDS011;57276;51.364;12.376;2022-10-16T14:16:32;3.40;;;1.17;;
69953;SDS011;57276;51.364;12.376;2022-10-16T14:22:37;3.13;;;1.00;;
69953;SDS011;57276;51.364;12.376;2022-10-16T14:28:40;2.70;;;0.95;;
69953;SDS011;57276;51.364;12.376;2022-10-16T14:34:42;2.70;;;1.10;;
69953;SDS011;57276;51.364;12.376;2022-10-16T14:40:53;3.22;;;1.30;;
69953;SDS011;57276;51.364;12.376;2022-10-16T14:46:56;2.50;;;1.00;;
69953;SDS011;57276;51.364;12.376;2022-10-16T14:52:58;3.37;;;1.10;;
69953;SDS011;57276;51.364;12.376;2022-10-16T14:58:59;2.90;;;1.20;;
69953;SDS011;57276;51.364;12.376;2022-10-16T15:05:07;2.50;;;1.07;;
69953;SDS011;57276;51.364;12.376;2022-10-16T15:11:12;3.90;;;1.50;;
69953;SDS011;57276;51.364;12.376;2022-10-16T15:17:14;2.80;;;1.02;;
69953;SDS011;57276;51.364;12.376;2022-10-16T15:23:21;2.80;;;1.10;;
69953;SDS011;57276;51.364;12.376;2022-10-16T15:29:22;3.03;;;1.20;;
69953;SDS011;57276;51.364;12.376;2022-10-16T15:35:24;4.97;;;1.40;;
69953;SDS011;57276;51.364;12.376;2022-10-16T15:41:26;3.80;;;1.52;;
69953;SDS011;57276;51.364;12.376;2022-10-16T15:47:27;3.63;;;1.52;;
69953;SDS011;57276;51.364;12.376;2022-10-16T15:53:29;3.60;;;1.60;;
69953;SDS011;57276;51.364;12.376;2022-10-16T15:59:30;5.25;;;1.55;;
69953;SDS011;57276;51.364;12.376;2022-10-16T16:05:32;4.73;;;1.70;;
69953;SDS011;57276;51.364;12.376;2022-10-16T16:11:34;4.65;;;2.08;;
69953;SDS011;57276;51.364;12.376;2022-10-16T16:17:39;3.45;;;1.40;;
69953;SDS011;57276;51.364;12.376;2022-10-16T16:23:41;6.03;;;1.87;;
69953;SDS011;57276;51.364;12.376;2022-10-16T16:29:43;4.60;;;1.90;;
69953;SDS011;57276;51.364;12.376;2022-10-16T16:35:45;4.90;;;2.40;;
69953;SDS011;57276;51.364;12.376;2022-10-16T16:41:46;5.15;;;1.98;;
69953;SDS011;57276;51.364;12.376;2022-10-16T16:47:48;6.30;;;1.80;;
69953;SDS011;57276;51.364;12.376;2022-10-16T16:53:50;5.43;;;2.07;;
69953;SDS011;57276;51.364;12.376;2022-10-16T16:59:53;6.25;;;2.20;;
69953;SDS011;57276;51.364;12.376;2022-10-16T17:05:55;5.57;;;2.63;;
69953;SDS011;57276;51.364;12.376;2022-10-16T17:11:57;7.13;;;4.72;;
69953;SDS011;57276;51.364;12.376;2022-10-16T17:17:58;6.63;;;3.35;;
69953;SDS011;57276;51.364;12.376;2022-10-16T17:24:00;7.70;;;3.33;;
69953;SDS011;57276;51.364;12.376;2022-10-16T17:30:03;5.25;;;3.28;;
69953;SDS011;57276;51.364;12.376;2022-10-16T17:36:06;8.77;;;4.20;;
69953;SDS011;57276;51.364;12.376;2022-10-16T17:42:08;14.35;;;8.13;;
69953;SDS011;57276;51.364;12.376;2022-10-16T17:48:10;11.63;;;7.05;;
69953;SDS011;57276;51.364;12.376;2022-10-16T17:54:11;17.97;;;9.40;;
69953;SDS011;57276;51.364;12.376;2022-10-16T18:00:14;13.30;;;7.57;;
69953;SDS011;57276;51.364;12.376;2022-10-16T18:06:17;14.00;;;7.50;;
69953;SDS011;57276;51.364;12.376;2022-10-16T18:12:23;15.18;;;8.75;;
69953;SDS011;57276;51.364;12.376;2022-10-16T18:18:25;17.10;;;9.38;;
69953;SDS011;57276;51.364;12.376;2022-10-16T18:24:30;11.47;;;6.00;;
69953;SDS011;57276;51.364;12.376;2022-10-16T18:30:31;9.38;;;4.60;;
69953;SDS011;57276;51.364;12.376;2022-10-16T18:36:33;9.30;;;4.87;;
69953;SDS011;57276;51.364;12.376;2022-10-16T18:42:35;7.50;;;4.82;;
69953;SDS011;57276;51.364;12.376;2022-10-16T18:48:37;8.23;;;4.68;;
69953;SDS011;57276;51.364;12.376;2022-10-16T18:54:38;9.80;;;4.37;;
69953;SDS011;57276;51.364;12.376;2022-10-16T19:00:40;7.05;;;3.90;;
69953;SDS011;57276;51.364;12.376;2022-10-16T19:06:42;5.93;;;3.40;;
69953;SDS011;57276;51.364;12.376;2022-10-16T19:12:44;6.97;;;3.78;;
69953;SDS011;57276;51.364;12.376;2022-10-16T19:18:46;7.78;;;3.22;;
69953;SDS011;57276;51.364;12.376;2022-10-16T19:24:48;5.90;;;3.20;;
69953;SDS011;57276;51.364;12.376;2022-10-16T19:30:50;8.68;;;3.40;;
69953;SDS011;57276;51.364;12.376;2022-10-16T19:36:51;6.50;;;3.80;;
69953;SDS011;57276;51.364;12.376;2022-10-16T19:42:54;7.63;;;3.28;;
69953;SDS011;57276;51.364;12.376;2022-10-16T19:48:56;5.63;;;2.95;;
69953;SDS011;57276;51.364;12.376;2022-10-16T19:54:58;5.33;;;3.07;;
69953;SDS011;57276;51.364;12.376;2022-10-16T20:01:00;5.00;;;2.85;;
69953;SDS011;57276;51.364;12.376;2022-10-16T20:07:01;9.13;;;6.17;;
69953;SDS011;57276;51.364;12.376;2022-10-16T20:13:03;5.90;;;3.10;;
69953;SDS011;57276;51.364;12.376;2022-10-16T20:19:04;4.57;;;2.50;;
69953;SDS011;57276;51.364;12.376;2022-10-16T20:25:06;4.47;;;2.73;;
69953;SDS011;57276;51.364;12.376;2022-10-16T20:31:14;5.25;;;2.60;;
69953;SDS011;57276;51.364;12.376;2022-10-16T20:37:18;5.20;;;2.80;;
69953;SDS011;57276;51.364;12.376;2022-10-16T20:43:19;5.47;;;2.63;;
69953;SDS011;57276;51.364;12.376;2022-10-16T20:49:21;5.95;;;2.58;;
69953;SDS011;57276;51.364;12.376;2022-10-16T20:55:40;6.20;;;2.80;;
69953;SDS011;57276;51.364;12.376;2022-10-16T21:01:41;6.32;;;2.97;;
69953;SDS011;57276;51.364;12.376;2022-10-16T21:07:43;4.93;;;3.00;;
69953;SDS011;57276;51.364;12.376;2022-10-16T21:13:44;4.95;;;2.70;;
69953;SDS011;57276;51.364;12.376;2022-10-16T21:19:46;4.55;;;2.50;;
69953;SDS011;57276;51.364;12.376;2022-10-16T21:25:48;10.03;;;4.90;;
69953;SDS011;57276;51.364;12.376;2022-10-16T21:31:50;8.60;;;4.80;;
69953;SDS011;57276;51.364;12.376;2022-10-16T21:37:51;7.70;;;3.60;;
69953;SDS011;57276;51.364;12.376;2022-10-16T21:43:53;5.93;;;3.20;;
69953;SDS011;57276;51.364;12.376;2022-10-16T21:49:55;7.82;;;3.45;;
69953;SDS011;57276;51.364;12.376;2022-10-16T21:55:57;5.93;;;3.03;;
69953;SDS011;57276;51.364;12.376;2022-10-16T22:01:58;5.82;;;3.28;;
69953;SDS011;57276;51.364;12.376;2022-10-16T22:08:02;6.60;;;3.30;;
69953;SDS011;57276;51.364;12.376;2022-10-16T22:14:08;8.23;;;3.55;;
69953;SDS011;57276;51.364;12.376;2022-10-16T22:20:10;6.05;;;3.30;;
69953;SDS011;57276;51.364;12.376;2022-10-16T22:26:12;7.73;;;3.20;;
69953;SDS011;57276;51.364;12.376;2022-10-16T22:32:13;6.05;;;3.30;;
69953;SDS011;57276;51.364;12.376;2022-10-16T22:38:15;6.33;;;3.30;;
69953;SDS011;57276;51.364;12.376;2022-10-16T22:44:16;8.70;;;3.88;;
69953;SDS011;57276;51.364;12.376;2022-10-16T22:50:17;6.35;;;3.50;;
69953;SDS011;57276;51.364;12.376;2022-10-16T22:56:20;8.93;;;3.30;;
69953;SDS011;57276;51.364;12.376;2022-10-16T23:02:21;6.68;;;3.22;;
69953;SDS011;57276;51.364;12.376;2022-10-16T23:08:23;7.90;;;3.50;;
69953;SDS011;57276;51.364;12.376;2022-10-16T23:14:24;9.23;;;4.13;;
69953;SDS011;57276;51.364;12.376;2022-10-16T23:20:26;7.72;;;3.95;;
69953;SDS011;57276;51.364;12.376;2022-10-16T23:26:27;8.37;;;4.07;;
69953;SDS011;57276;51.364;12.376;2022-10-16T23:32:29;6.75;;;3.13;;
69953;SDS011;57276;51.364;12.376;2022-10-16T23:38:31;7.40;;;3.40;;
69953;SDS011;57276;51.364;12.376;2022-10-16T23:44:32;6.07;;;3.42;;
69953;SDS011;57276;51.364;12.376;2022-10-16T23:50:34;8.95;;;3.40;;
69953;SDS011;57276;51.364;12.376;2022-10-16T23:56:36;5.57;;;3.47;;
